Time,TemperatureF,DewpointF,PressureIn,WindDirection,WindDirectionDegrees,WindSpeedMPH,WindSpeedGustMPH,Humidity,HourlyPrecipIn,Conditions,Clouds,dailyrainin,SoftwareType,DateUTC
2013-05-31 00:02:00,75.4,71.0,30.04,ENE,64,6.0,11.0,86,0.00,,,0.05,weatherlink.com 1.10,2013-05-31 04:02:00,
2013-05-31 00:17:00,75.1,71.0,30.04,ENE,73,9.0,10.0,87,0.00,,,0.05,weatherlink.com 1.10,2013-05-31 04:17:00,
2013-05-31 00:32:00,75.1,71.0,30.04,ENE,61,6.0,11.0,87,0.00,,,0.05,weatherlink.com 1.10,2013-05-31 04:32:00,
2013-05-31 00:47:00,74.9,71.0,30.04,ENE,64,3.0,8.0,88,0.00,,,0.05,weatherlink.com 1.10,2013-05-31 04:47:00,
2013-05-31 01:02:00,74.7,71.0,30.04,ENE,70,3.0,7.0,88,0.00,,,0.05,weatherlink.com 1.10,2013-05-31 05:02:00,
2013-05-31 01:17:00,74.5,71.0,30.03,ENE,77,3.0,6.0,88,0.00,,,0.05,weatherlink.com 1.10,2013-05-31 05:17:00,
2013-05-31 01:32:00,74.3,71.0,30.03,NE,53,2.0,5.0,89,0.00,,,0.05,weatherlink.com 1.10,2013-05-31 05:32:00,
2013-05-31 01:47:00,74.2,71.0,30.03,ENE,61,4.0,6.0,89,0.00,,,0.05,weatherlink.com 1.10,2013-05-31 05:47:00,
2013-05-31 02:02:00,74.1,71.0,30.03,ENE,61,5.0,6.0,89,0.00,,,0.05,weatherlink.com 1.10,2013-05-31 06:02:00,
2013-05-31 02:17:00,73.9,71.0,30.02,ENE,62,4.0,7.0,89,0.00,,,0.00,weatherlink.com 1.10,2013-05-31 06:17:00,
2013-05-31 02:32:00,73.6,71.0,30.01,ENE,73,4.0,8.0,90,0.00,,,0.00,weatherlink.com 1.10,2013-05-31 06:32:00,
2013-05-31 02:47:00,73.3,70.0,30.00,ENE,65,2.0,6.0,90,0.00,,,0.00,weatherlink.com 1.10,2013-05-31 06:47:00,
2013-05-31 03:02:00,73.1,70.0,30.00,ENE,72,3.0,7.0,91,0.00,,,0.00,weatherlink.com 1.10,2013-05-31 07:02:00,
2013-05-31 03:17:00,73.1,70.0,30.00,NE,45,6.0,7.0,91,0.00,,,0.00,weatherlink.com 1.10,2013-05-31 07:17:00,
2013-05-31 03:32:00,73.0,70.0,30.00,ENE,61,4.0,7.0,91,0.00,,,0.00,weatherlink.com 1.10,2013-05-31 07:32:00,
2013-05-31 03:47:00,72.9,71.0,30.00,ENE,63,4.0,7.0,92,0.00,,,0.00,weatherlink.com 1.10,2013-05-31 07:47:00,
2013-05-31 04:02:00,72.7,70.0,30.01,NE,52,2.0,6.0,92,0.00,,,0.00,weatherlink.com 1.10,2013-05-31 08:02:00,
2013-05-31 04:17:00,72.7,71.0,30.00,ENE,64,4.0,5.0,93,0.00,,,0.00,weatherlink.com 1.10,2013-05-31 08:17:00,
2013-05-31 04:32:00,72.5,70.0,30.00,ENE,64,5.0,7.0,93,0.00,,,0.00,weatherlink.com 1.10,2013-05-31 08:32:00,
2013-05-31 04:47:00,72.4,71.0,30.00,ENE,74,6.0,7.0,94,0.00,,,0.00,weatherlink.com 1.10,2013-05-31 08:47:00,
2013-05-31 05:02:00,72.5,71.0,29.99,ENE,60,7.0,7.0,94,0.00,,,0.00,weatherlink.com 1.10,2013-05-31 09:02:00,
2013-05-31 05:17:00,72.8,71.0,29.98,East,89,4.0,11.0,95,0.00,,,0.00,weatherlink.com 1.10,2013-05-31 09:17:00,
2013-05-31 05:32:00,72.9,71.0,29.99,ENE,66,3.0,9.0,95,0.00,,,0.00,weatherlink.com 1.10,2013-05-31 09:32:00,
2013-05-31 05:47:00,73.0,72.0,29.99,NE,34,8.0,11.0,95,0.00,,,0.00,weatherlink.com 1.10,2013-05-31 09:47:00,
2013-05-31 06:02:00,73.0,72.0,30.00,ENE,77,7.0,8.0,95,0.00,,,0.00,weatherlink.com 1.10,2013-05-31 10:02:00,
2013-05-31 06:17:00,73.1,71.0,30.00,ENE,66,2.0,8.0,94,0.00,,,0.00,weatherlink.com 1.10,2013-05-31 10:17:00,
2013-05-31 06:32:00,73.2,71.0,30.01,ENE,66,3.0,7.0,94,0.00,,,0.00,weatherlink.com 1.10,2013-05-31 10:32:00,
2013-05-31 06:47:00,73.4,72.0,30.01,ENE,77,6.0,8.0,94,0.00,,,0.00,weatherlink.com 1.10,2013-05-31 10:47:00,
2013-05-31 07:03:00,73.6,72.0,30.02,NE,50,7.0,8.0,94,0.00,,,0.00,weatherlink.com 1.10,2013-05-31 11:03:00,
2013-05-31 07:18:00,73.9,72.0,30.02,ENE,58,4.0,9.0,94,0.00,,,0.00,weatherlink.com 1.10,2013-05-31 11:18:00,
2013-05-31 07:33:00,74.0,72.0,30.02,NE,54,3.0,7.0,94,0.00,,,0.00,weatherlink.com 1.10,2013-05-31 11:33:00,
2013-05-31 07:48:00,74.6,73.0,30.03,ENE,65,7.0,8.0,93,0.00,,,0.00,weatherlink.com 1.10,2013-05-31 11:48:00,
2013-05-31 08:03:00,75.9,73.0,30.03,ENE,78,5.0,10.0,91,0.00,,,0.00,weatherlink.com 1.10,2013-05-31 12:03:00,
2013-05-31 08:18:00,76.6,73.0,30.03,East,89,7.0,12.0,88,0.00,,,0.00,weatherlink.com 1.10,2013-05-31 12:18:00,
2013-05-31 08:33:00,77.5,73.0,30.04,East,86,8.0,10.0,87,0.00,,,0.00,weatherlink.com 1.10,2013-05-31 12:33:00,
2013-05-31 08:48:00,78.5,74.0,30.04,ENE,66,6.0,11.0,85,0.00,,,0.00,weatherlink.com 1.10,2013-05-31 12:48:00,
2013-05-31 09:03:00,79.1,74.0,30.04,East,81,2.0,9.0,84,0.00,,,0.00,weatherlink.com 1.10,2013-05-31 13:03:00,
2013-05-31 09:18:00,79.8,74.0,30.04,ENE,70,9.0,11.0,82,0.00,,,0.00,weatherlink.com 1.10,2013-05-31 13:18:00,
2013-05-31 09:33:00,80.9,74.0,30.03,East,81,3.0,11.0,80,0.00,,,0.00,weatherlink.com 1.10,2013-05-31 13:33:00,
2013-05-31 09:48:00,81.7,74.0,30.03,ENE,65,4.0,10.0,78,0.00,,,0.00,weatherlink.com 1.10,2013-05-31 13:48:00,
2013-05-31 10:03:00,81.9,74.0,30.03,ENE,71,7.0,13.0,76,0.00,,,0.00,weatherlink.com 1.10,2013-05-31 14:03:00,
2013-05-31 10:18:00,82.5,75.0,30.03,ENE,73,3.0,10.0,77,0.00,,,0.00,weatherlink.com 1.10,2013-05-31 14:18:00,
2013-05-31 10:33:00,82.5,74.0,30.03,East,91,7.0,14.0,75,0.00,,,0.00,weatherlink.com 1.10,2013-05-31 14:33:00,
2013-05-31 10:48:00,83.8,74.0,30.04,ENE,64,7.0,12.0,72,0.00,,,0.00,weatherlink.com 1.10,2013-05-31 14:48:00,
2013-05-31 11:03:00,83.9,74.0,30.03,NE,44,3.0,9.0,72,0.00,,,0.00,weatherlink.com 1.10,2013-05-31 15:03:00,
2013-05-31 11:18:00,84.4,74.0,30.04,SSE,148,7.0,14.0,72,0.00,,,0.00,weatherlink.com 1.10,2013-05-31 15:18:00,
2013-05-31 11:33:00,84.9,74.0,30.04,North,359,2.0,10.0,70,0.00,,,0.00,weatherlink.com 1.10,2013-05-31 15:33:00,
2013-05-31 11:48:00,85.8,75.0,30.04,ENE,60,3.0,9.0,69,0.00,,,0.00,weatherlink.com 1.10,2013-05-31 15:48:00,
2013-05-31 12:03:00,85.4,74.0,30.03,ENE,68,3.0,10.0,68,0.00,,,0.00,weatherlink.com 1.10,2013-05-31 16:03:00,
2013-05-31 12:18:00,84.5,73.0,30.03,ENE,65,7.0,11.0,69,0.00,,,0.00,weatherlink.com 1.10,2013-05-31 16:18:00,
2013-05-31 12:33:00,84.6,73.0,30.03,ESE,105,2.0,7.0,69,0.00,,,0.00,weatherlink.com 1.10,2013-05-31 16:33:00,
2013-05-31 12:48:00,84.6,73.0,30.03,ENE,68,6.0,7.0,69,0.00,,,0.00,weatherlink.com 1.10,2013-05-31 16:48:00,
2013-05-31 13:03:00,84.8,74.0,30.03,East,100,4.0,7.0,69,0.00,,,0.00,weatherlink.com 1.10,2013-05-31 17:03:00,
2013-05-31 13:18:00,85.7,74.0,30.03,ENE,64,5.0,9.0,67,0.00,,,0.00,weatherlink.com 1.10,2013-05-31 17:18:00,
2013-05-31 13:33:00,81.9,74.0,30.02,SW,226,3.0,10.0,77,0.00,,,0.00,weatherlink.com 1.10,2013-05-31 17:33:00,
2013-05-31 13:48:00,82.8,75.0,30.02,WNW,283,0.0,7.0,77,0.00,,,0.00,weatherlink.com 1.10,2013-05-31 17:48:00,
2013-05-31 14:03:00,85.9,75.0,30.01,ESE,111,2.0,11.0,70,0.00,,,0.00,weatherlink.com 1.10,2013-05-31 18:03:00,
2013-05-31 14:19:00,84.5,75.0,30.01,SE,146,6.0,9.0,74,0.00,,,0.00,weatherlink.com 1.10,2013-05-31 18:19:00,
2013-05-31 14:34:00,85.4,75.0,30.00,SE,136,5.0,6.0,71,0.00,,,0.00,weatherlink.com 1.10,2013-05-31 18:34:00,
2013-05-31 14:49:00,86.2,76.0,30.01,SSE,152,3.0,8.0,72,0.00,,,0.00,weatherlink.com 1.10,2013-05-31 18:49:00,
2013-05-31 15:04:00,83.5,75.0,30.00,ESE,115,0.0,5.0,76,0.00,,,0.00,weatherlink.com 1.10,2013-05-31 19:04:00,
2013-05-31 15:19:00,84.1,75.0,29.99,ENE,73,6.0,12.0,75,0.00,,,0.00,weatherlink.com 1.10,2013-05-31 19:19:00,
2013-05-31 15:34:00,84.5,76.0,29.99,ENE,58,8.0,9.0,75,0.00,,,0.00,weatherlink.com 1.10,2013-05-31 19:34:00,
2013-05-31 15:49:00,83.9,75.0,29.99,East,91,5.0,11.0,74,0.00,,,0.00,weatherlink.com 1.10,2013-05-31 19:49:00,
2013-05-31 16:04:00,85.2,75.0,29.99,East,82,13.0,16.0,71,0.00,,,0.00,weatherlink.com 1.10,2013-05-31 20:04:00,
2013-05-31 16:19:00,83.8,74.0,29.99,ENE,70,4.0,11.0,72,0.00,,,0.00,weatherlink.com 1.10,2013-05-31 20:19:00,
2013-05-31 16:34:00,82.7,74.0,29.99,ESE,120,8.0,13.0,74,0.00,,,0.00,weatherlink.com 1.10,2013-05-31 20:34:00,
2013-05-31 16:49:00,82.8,73.0,29.98,ENE,70,8.0,12.0,73,0.00,,,0.00,weatherlink.com 1.10,2013-05-31 20:49:00,
2013-05-31 17:04:00,83.9,74.0,29.98,ENE,68,13.0,13.0,72,0.00,,,0.00,weatherlink.com 1.10,2013-05-31 21:04:00,
2013-05-31 17:19:00,85.8,74.0,29.97,ENE,64,6.0,12.0,67,0.00,,,0.00,weatherlink.com 1.10,2013-05-31 21:19:00,
2013-05-31 17:34:00,85.6,74.0,29.98,ENE,77,8.0,13.0,68,0.00,,,0.00,weatherlink.com 1.10,2013-05-31 21:34:00,
2013-05-31 17:49:00,84.9,74.0,29.98,NNE,23,2.0,13.0,69,0.00,,,0.00,weatherlink.com 1.10,2013-05-31 21:49:00,
2013-05-31 18:04:00,84.8,73.0,29.98,ENE,72,8.0,13.0,68,0.00,,,0.00,weatherlink.com 1.10,2013-05-31 22:04:00,
2013-05-31 18:19:00,83.6,73.0,29.98,East,101,6.0,11.0,71,0.00,,,0.00,weatherlink.com 1.10,2013-05-31 22:19:00,
2013-05-31 18:34:00,82.2,74.0,29.98,SE,131,5.0,6.0,77,0.00,,,0.00,weatherlink.com 1.10,2013-05-31 22:34:00,
2013-05-31 18:49:00,81.0,75.0,29.99,SE,146,2.0,8.0,81,0.00,,,0.00,weatherlink.com 1.10,2013-05-31 22:49:00,
2013-05-31 19:04:00,81.2,73.0,29.98,ENE,73,4.0,13.0,76,0.00,,,0.00,weatherlink.com 1.10,2013-05-31 23:04:00,
2013-05-31 19:19:00,81.6,73.0,29.99,ENE,68,14.0,15.0,74,0.00,,,0.00,weatherlink.com 1.10,2013-05-31 23:19:00,
2013-05-31 19:34:00,81.3,73.0,29.99,ENE,68,11.0,13.0,76,0.00,,,0.00,weatherlink.com 1.10,2013-05-31 23:34:00,
2013-05-31 19:49:00,80.9,73.0,30.00,ENE,75,14.0,16.0,78,0.00,,,0.00,weatherlink.com 1.10,2013-05-31 23:49:00,
2013-05-31 20:04:00,80.3,73.0,30.00,ENE,64,12.0,17.0,79,0.00,,,0.00,weatherlink.com 1.10,2013-06-01 00:04:00,
2013-05-31 20:19:00,79.8,74.0,30.01,East,79,5.0,12.0,81,0.00,,,0.00,weatherlink.com 1.10,2013-06-01 00:19:00,
2013-05-31 20:34:00,79.4,73.0,30.01,NE,54,10.0,11.0,81,0.00,,,0.00,weatherlink.com 1.10,2013-06-01 00:34:00,
2013-05-31 20:49:00,78.8,73.0,30.02,ENE,61,13.0,13.0,82,0.00,,,0.00,weatherlink.com 1.10,2013-06-01 00:49:00,
2013-05-31 21:04:00,78.4,73.0,30.02,East,79,7.0,12.0,83,0.00,,,0.00,weatherlink.com 1.10,2013-06-01 01:04:00,
2013-05-31 21:19:00,78.1,73.0,30.03,East,84,7.0,9.0,83,0.00,,,0.00,weatherlink.com 1.10,2013-06-01 01:19:00,
2013-05-31 21:34:00,77.9,72.0,30.02,ENE,70,4.0,10.0,83,0.00,,,0.00,weatherlink.com 1.10,2013-06-01 01:34:00,
2013-05-31 21:49:00,77.7,72.0,30.02,ENE,77,5.0,8.0,83,0.00,,,0.00,weatherlink.com 1.10,2013-06-01 01:49:00,
2013-05-31 22:04:00,77.5,72.0,30.03,ENE,58,7.0,10.0,83,0.00,,,0.00,weatherlink.com 1.10,2013-06-01 02:04:00,
2013-05-31 22:19:00,77.2,72.0,30.03,ENE,65,7.0,12.0,84,0.00,,,0.00,weatherlink.com 1.10,2013-06-01 02:19:00,
2013-05-31 22:34:00,77.0,72.0,30.03,ENE,73,7.0,10.0,85,0.00,,,0.00,weatherlink.com 1.10,2013-06-01 02:34:00,
2013-05-31 22:49:00,76.8,72.0,30.02,ENE,70,5.0,9.0,86,0.00,,,0.00,weatherlink.com 1.10,2013-06-01 02:49:00,
2013-05-31 23:04:00,76.6,73.0,30.03,ENE,71,8.0,10.0,87,0.00,,,0.00,weatherlink.com 1.10,2013-06-01 03:04:00,
2013-05-31 23:19:00,76.4,72.0,30.03,NE,42,2.0,8.0,87,0.00,,,0.00,weatherlink.com 1.10,2013-06-01 03:19:00,
2013-05-31 23:34:00,76.2,73.0,30.03,ENE,72,3.0,6.0,88,0.00,,,0.00,weatherlink.com 1.10,2013-06-01 03:34:00,
2013-05-31 23:49:00,76.1,72.0,30.03,ENE,65,8.0,8.0,88,0.00,,,0.00,weatherlink.com 1.10,2013-06-01 03:49:00,